Zhangshu, China
Current Conditions -  °F | °C
As of 12:00 PM on Saturday 25 Oct 2014 (Local Time) from ZGHA Reporting Station
Clear Clear  
Wind Chill: 82°   Ceiling: Unl
Heat Index: 82°   Visibility: 6mi
Dew Point: 54°   Wind: 9mph
Humidity: 37%   Direction: 160°SSE
Pressure: 30.03"   Gusts: NA
Location:  28.08°N, 115.52°E
Report Text: ZGHA 250400Z 16004MPS 130V210 CAVOK 28/12 Q1017 NOSIG
Loading
Personal Weather Stations






























Interactive Weather Map
Tropical Storm Tracking
New forecast layout! Learn more

10-Day Weather Forecast

Advertisements
Track Severe Weather on mobile